sensor_id;sensor_type;location;lat;lon;timestamp;pressure;altitude;pressure_sealevel;temperature;humidity
17505;BME280;8870;50.950;11.762;2024-02-28T00:35:19;98658.78;;;3.73;100.00
17505;BME280;8870;50.950;11.762;2024-02-28T00:40:37;98656.94;;;3.74;100.00
17505;BME280;8870;50.950;11.762;2024-02-28T00:46:09;98655.03;;;3.76;100.00
17505;BME280;8870;50.950;11.762;2024-02-28T00:51:30;98655.91;;;3.76;100.00
17505;BME280;8870;50.950;11.762;2024-02-28T00:57:01;98650.16;;;3.69;100.00
17505;BME280;8870;50.950;11.762;2024-02-28T01:02:19;98652.28;;;3.64;100.00
17505;BME280;8870;50.950;11.762;2024-02-28T01:07:54;98651.06;;;3.57;100.00
17505;BME280;8870;50.950;11.762;2024-02-28T01:13:12;98659.53;;;3.62;100.00
17505;BME280;8870;50.950;11.762;2024-02-28T01:18:45;98665.94;;;3.60;100.00
17505;BME280;8870;50.950;11.762;2024-02-28T01:24:06;98650.59;;;3.63;100.00
17505;BME280;8870;50.950;11.762;2024-02-28T01:29:37;98662.88;;;3.53;100.00
17505;BME280;8870;50.950;11.762;2024-02-28T01:34:55;98647.97;;;3.50;100.00
17505;BME280;8870;50.950;11.762;2024-02-28T01:40:29;98645.06;;;3.53;100.00
17505;BME280;8870;50.950;11.762;2024-02-28T01:45:47;98645.66;;;3.46;100.00
17505;BME280;8870;50.950;11.762;2024-02-28T01:51:19;98649.03;;;3.48;100.00
17505;BME280;8870;50.950;11.762;2024-02-28T01:56:40;98645.66;;;3.46;100.00
17505;BME280;8870;50.950;11.762;2024-02-28T02:02:12;98647.84;;;3.52;100.00
17505;BME280;8870;50.950;11.762;2024-02-28T02:07:37;98645.13;;;3.41;100.00
17505;BME280;8870;50.950;11.762;2024-02-28T02:13:12;98642.59;;;3.26;100.00
17505;BME280;8870;50.950;11.762;2024-02-28T02:18:33;98643.44;;;3.14;100.00
17505;BME280;8870;50.950;11.762;2024-02-28T02:24:08;98646.97;;;3.01;100.00
17505;BME280;8870;50.950;11.762;2024-02-28T02:29:26;98652.94;;;2.92;100.00
17505;BME280;8870;50.950;11.762;2024-02-28T02:34:57;98647.84;;;2.89;100.00
17505;BME280;8870;50.950;11.762;2024-02-28T02:40:18;98655.09;;;2.87;100.00
17505;BME280;8870;50.950;11.762;2024-02-28T02:45:50;98647.53;;;2.81;100.00
17505;BME280;8870;50.950;11.762;2024-02-28T02:51:08;98646.91;;;2.77;100.00
17505;BME280;8870;50.950;11.762;2024-02-28T02:56:44;98659.56;;;2.73;100.00
17505;BME280;8870;50.950;11.762;2024-02-28T03:02:02;98672.94;;;2.72;100.00
17505;BME280;8870;50.950;11.762;2024-02-28T03:07:35;98668.28;;;2.75;100.00
17505;BME280;8870;50.950;11.762;2024-02-28T03:12:56;98670.72;;;2.78;100.00
17505;BME280;8870;50.950;11.762;2024-02-28T03:18:28;98688.19;;;2.83;100.00
17505;BME280;8870;50.950;11.762;2024-02-28T03:23:46;98686.06;;;2.88;100.00
17505;BME280;8870;50.950;11.762;2024-02-28T03:29:20;98699.06;;;2.92;100.00
17505;BME280;8870;50.950;11.762;2024-02-28T03:34:38;98708.75;;;2.93;100.00
17505;BME280;8870;50.950;11.762;2024-02-28T03:40:11;98726.72;;;2.90;100.00
17505;BME280;8870;50.950;11.762;2024-02-28T03:45:39;98739.31;;;2.88;100.00
17505;BME280;8870;50.950;11.762;2024-02-28T03:51:11;98731.19;;;2.89;100.00
17505;BME280;8870;50.950;11.762;2024-02-28T03:56:29;98741.84;;;2.89;100.00
17505;BME280;8870;50.950;11.762;2024-02-28T04:02:03;98748.88;;;2.90;100.00
17505;BME280;8870;50.950;11.762;2024-02-28T04:07:21;98759.31;;;2.93;100.00
17505;BME280;8870;50.950;11.762;2024-02-28T04:12:52;98759.19;;;2.95;100.00
17505;BME280;8870;50.950;11.762;2024-02-28T04:18:13;98766.00;;;2.86;100.00
17505;BME280;8870;50.950;11.762;2024-02-28T04:23:44;98777.16;;;2.78;100.00
17505;BME280;8870;50.950;11.762;2024-02-28T04:29:02;98786.31;;;2.74;100.00
17505;BME280;8870;50.950;11.762;2024-02-28T04:34:38;98781.19;;;2.71;100.00
17505;BME280;8870;50.950;11.762;2024-02-28T04:39:56;98788.31;;;2.71;100.00
17505;BME280;8870;50.950;11.762;2024-02-28T04:45:29;98789.28;;;2.70;100.00
17505;BME280;8870;50.950;11.762;2024-02-28T04:51:03;98785.75;;;2.69;100.00
17505;BME280;8870;50.950;11.762;2024-02-28T04:56:21;98788.41;;;2.69;100.00
17505;BME280;8870;50.950;11.762;2024-02-28T05:01:52;98803.44;;;2.70;100.00
17505;BME280;8870;50.950;11.762;2024-02-28T05:07:13;98788.72;;;2.65;100.00
17505;BME280;8870;50.950;11.762;2024-02-28T05:12:45;98794.16;;;2.63;100.00
17505;BME280;8870;50.950;11.762;2024-02-28T05:18:04;98809.91;;;2.66;100.00
17505;BME280;8870;50.950;11.762;2024-02-28T05:23:38;98816.94;;;2.67;100.00
17505;BME280;8870;50.950;11.762;2024-02-28T05:28:56;98823.31;;;2.65;100.00
17505;BME280;8870;50.950;11.762;2024-02-28T05:34:28;98835.78;;;2.64;100.00
17505;BME280;8870;50.950;11.762;2024-02-28T05:39:49;98836.50;;;2.66;100.00
17505;BME280;8870;50.950;11.762;2024-02-28T05:45:20;98839.91;;;2.68;100.00
17505;BME280;8870;50.950;11.762;2024-02-28T05:50:52;98852.91;;;2.73;100.00
17505;BME280;8870;50.950;11.762;2024-02-28T05:56:14;98855.28;;;2.77;100.00
17505;BME280;8870;50.950;11.762;2024-02-28T06:47:59;98905.59;;;2.95;100.00
17505;BME280;8870;50.950;11.762;2024-02-28T06:53:30;98909.97;;;2.96;100.00
17505;BME280;8870;50.950;11.762;2024-02-28T06:58:48;98916.13;;;2.97;100.00
17505;BME280;8870;50.950;11.762;2024-02-28T07:04:22;98922.22;;;2.99;100.00
17505;BME280;8870;50.950;11.762;2024-02-28T07:09:40;98920.94;;;3.04;100.00
17505;BME280;8870;50.950;11.762;2024-02-28T07:15:15;98924.69;;;3.15;100.00
17505;BME280;8870;50.950;11.762;2024-02-28T07:20:29;98922.28;;;3.24;100.00
17505;BME280;8870;50.950;11.762;2024-02-28T07:26:01;98917.84;;;3.38;100.00
17505;BME280;8870;50.950;11.762;2024-02-28T07:31:30;98917.34;;;3.46;100.00
17505;BME280;8870;50.950;11.762;2024-02-28T07:37:06;98917.22;;;3.47;100.00
17505;BME280;8870;50.950;11.762;2024-02-28T07:42:25;98910.63;;;3.53;100.00
17505;BME280;8870;50.950;11.762;2024-02-28T07:47:56;98900.59;;;3.57;100.00
17505;BME280;8870;50.950;11.762;2024-02-28T07:53:23;98911.19;;;3.58;100.00
17505;BME280;8870;50.950;11.762;2024-02-28T07:58:48;98911.19;;;3.58;100.00
17505;BME280;8870;50.950;11.762;2024-02-28T08:04:16;98889.31;;;3.53;100.00
17505;BME280;8870;50.950;11.762;2024-02-28T08:09:50;98883.88;;;3.54;100.00
17505;BME280;8870;50.950;11.762;2024-02-28T08:15:09;98884.75;;;3.68;100.00
17505;BME280;8870;50.950;11.762;2024-02-28T08:20:46;98872.47;;;3.78;100.00
17505;BME280;8870;50.950;11.762;2024-02-28T08:26:00;98869.06;;;3.89;100.00
17505;BME280;8870;50.950;11.762;2024-02-28T08:31:32;98868.41;;;3.98;100.00
17505;BME280;8870;50.950;11.762;2024-02-28T08:36:50;98865.44;;;4.03;100.00
17505;BME280;8870;50.950;11.762;2024-02-28T08:42:25;98872.47;;;4.04;100.00
17505;BME280;8870;50.950;11.762;2024-02-28T08:47:50;98872.88;;;4.11;100.00
17505;BME280;8870;50.950;11.762;2024-02-28T08:53:23;98870.75;;;4.16;100.00
17505;BME280;8870;50.950;11.762;2024-02-28T08:58:44;98875.44;;;4.25;100.00
17505;BME280;8870;50.950;11.762;2024-02-28T09:04:15;98862.59;;;4.30;100.00
17505;BME280;8870;50.950;11.762;2024-02-28T09:09:33;98878.59;;;4.30;100.00
17505;BME280;8870;50.950;11.762;2024-02-28T09:15:10;98874.47;;;4.26;100.00
17505;BME280;8870;50.950;11.762;2024-02-28T09:20:28;98861.22;;;4.25;100.00
17505;BME280;8870;50.950;11.762;2024-02-28T09:26:03;98868.78;;;4.31;100.00
17505;BME280;8870;50.950;11.762;2024-02-28T09:31:24;98868.53;;;4.47;100.00
17505;BME280;8870;50.950;11.762;2024-02-28T09:36:55;98852.25;;;4.63;100.00
17505;BME280;8870;50.950;11.762;2024-02-28T09:42:14;98869.63;;;4.69;100.00
17505;BME280;8870;50.950;11.762;2024-02-28T09:47:48;98867.38;;;4.75;100.00
17505;BME280;8870;50.950;11.762;2024-02-28T09:53:19;98865.72;;;4.86;100.00
17505;BME280;8870;50.950;11.762;2024-02-28T09:58:40;98867.81;;;4.93;100.00
17505;BME280;8870;50.950;11.762;2024-02-28T10:04:14;98877.06;;;5.01;100.00
17505;BME280;8870;50.950;11.762;2024-02-28T10:09:32;98867.69;;;4.95;100.00
17505;BME280;8870;50.950;11.762;2024-02-28T10:15:05;98877.41;;;4.96;100.00
17505;BME280;8870;50.950;11.762;2024-02-28T10:20:30;98881.78;;;4.97;100.00
17505;BME280;8870;50.950;11.762;2024-02-28T10:26:02;98889.22;;;5.05;100.00
17505;BME280;8870;50.950;11.762;2024-02-28T10:31:21;98880.78;;;5.11;100.00
17505;BME280;8870;50.950;11.762;2024-02-28T10:36:57;98893.44;;;5.20;100.00
17505;BME280;8870;50.950;11.762;2024-02-28T10:42:16;98894.66;;;5.28;100.00
17505;BME280;8870;50.950;11.762;2024-02-28T10:47:50;98891.28;;;5.37;100.00
17505;BME280;8870;50.950;11.762;2024-02-28T10:53:13;98883.78;;;5.42;100.00
17505;BME280;8870;50.950;11.762;2024-02-28T10:58:50;98882.34;;;5.49;100.00
17505;BME280;8870;50.950;11.762;2024-02-28T11:04:10;98901.56;;;5.54;100.00
17505;BME280;8870;50.950;11.762;2024-02-28T11:09:44;98891.47;;;5.58;100.00
17505;BME280;8870;50.950;11.762;2024-02-28T11:15:05;98884.81;;;5.64;100.00
17505;BME280;8870;50.950;11.762;2024-02-28T11:20:46;98874.88;;;5.77;100.00
17505;BME280;8870;50.950;11.762;2024-02-28T11:26:11;98873.31;;;5.86;100.00
17505;BME280;8870;50.950;11.762;2024-02-28T11:31:47;98873.91;;;5.90;100.00
17505;BME280;8870;50.950;11.762;2024-02-28T11:36:58;98880.47;;;5.97;100.00
17505;BME280;8870;50.950;11.762;2024-02-28T11:48:06;98872.25;;;6.11;100.00
17505;BME280;8870;50.950;11.762;2024-02-28T11:53:42;98873.44;;;6.19;100.00
17505;BME280;8870;50.950;11.762;2024-02-28T15:34:22;98768.41;;;12.59;100.00
17505;BME280;8870;50.950;11.762;2024-02-28T15:39:54;98769.97;;;12.70;100.00
17505;BME280;8870;50.950;11.762;2024-02-28T15:45:15;98777.25;;;12.77;100.00
17505;BME280;8870;50.950;11.762;2024-02-28T15:50:49;98775.66;;;12.42;100.00
17505;BME280;8870;50.950;11.762;2024-02-28T15:56:08;98769.13;;;12.10;100.00
17505;BME280;8870;50.950;11.762;2024-02-28T16:01:39;98766.75;;;11.46;100.00
17505;BME280;8870;50.950;11.762;2024-02-28T16:07:00;98770.06;;;10.59;100.00
17505;BME280;8870;50.950;11.762;2024-02-28T16:12:32;98769.19;;;10.12;100.00
17505;BME280;8870;50.950;11.762;2024-02-28T16:17:51;98771.78;;;9.66;100.00
17505;BME280;8870;50.950;11.762;2024-02-28T16:23:24;98772.03;;;9.25;100.00
17505;BME280;8870;50.950;11.762;2024-02-28T16:28:43;98782.25;;;8.73;100.00
17505;BME280;8870;50.950;11.762;2024-02-28T16:34:13;98792.47;;;8.28;100.00
17505;BME280;8870;50.950;11.762;2024-02-28T16:39:34;98793.22;;;7.99;100.00
17505;BME280;8870;50.950;11.762;2024-02-28T16:45:07;98792.69;;;7.75;100.00
17505;BME280;8870;50.950;11.762;2024-02-28T16:50:26;98795.56;;;7.52;100.00
17505;BME280;8870;50.950;11.762;2024-02-28T16:55:59;98805.44;;;7.30;100.00
17505;BME280;8870;50.950;11.762;2024-02-28T17:01:18;98806.00;;;7.13;100.00
17505;BME280;8870;50.950;11.762;2024-02-28T17:06:50;98811.22;;;6.93;100.00
17505;BME280;8870;50.950;11.762;2024-02-28T17:12:10;98818.81;;;6.76;100.00
17505;BME280;8870;50.950;11.762;2024-02-28T17:17:42;98821.81;;;6.62;100.00
17505;BME280;8870;50.950;11.762;2024-02-28T17:23:00;98820.38;;;6.46;100.00
17505;BME280;8870;50.950;11.762;2024-02-28T17:28:34;98816.78;;;6.25;100.00
17505;BME280;8870;50.950;11.762;2024-02-28T17:33:53;98816.53;;;5.94;100.00
17505;BME280;8870;50.950;11.762;2024-02-28T17:39:28;98823.09;;;5.78;100.00
17505;BME280;8870;50.950;11.762;2024-02-28T17:45:10;98832.22;;;5.64;100.00
17505;BME280;8870;50.950;11.762;2024-02-28T17:50:29;98832.78;;;5.45;100.00
17505;BME280;8870;50.950;11.762;2024-02-28T17:56:01;98829.06;;;5.23;100.00
17505;BME280;8870;50.950;11.762;2024-02-28T18:07:17;98835.50;;;4.85;100.00
17505;BME280;8870;50.950;11.762;2024-02-28T18:12:48;98840.94;;;4.84;100.00
17505;BME280;8870;50.950;11.762;2024-02-28T18:18:07;98842.19;;;4.67;100.00
17505;BME280;8870;50.950;11.762;2024-02-28T18:23:40;98849.72;;;4.48;100.00
17505;BME280;8870;50.950;11.762;2024-02-28T18:29:05;98854.72;;;4.29;100.00
17505;BME280;8870;50.950;11.762;2024-02-28T18:34:36;98855.25;;;4.21;100.00
17505;BME280;8870;50.950;11.762;2024-02-28T18:40:00;98856.00;;;4.23;100.00
17505;BME280;8870;50.950;11.762;2024-02-28T18:45:34;98857.84;;;4.10;100.00
17505;BME280;8870;50.950;11.762;2024-02-28T18:50:53;98858.50;;;4.00;100.00
17505;BME280;8870;50.950;11.762;2024-02-28T18:56:27;98850.53;;;3.88;100.00
17505;BME280;8870;50.950;11.762;2024-02-28T19:01:46;98849.03;;;3.70;100.00
17505;BME280;8870;50.950;11.762;2024-02-28T19:07:18;98855.22;;;3.58;100.00
17505;BME280;8870;50.950;11.762;2024-02-28T19:12:38;98854.38;;;3.58;100.00
17505;BME280;8870;50.950;11.762;2024-02-28T19:18:09;98849.47;;;3.51;100.00
17505;BME280;8870;50.950;11.762;2024-02-28T19:23:28;98844.97;;;3.52;100.00
17505;BME280;8870;50.950;11.762;2024-02-28T19:29:02;98842.97;;;3.43;100.00
17505;BME280;8870;50.950;11.762;2024-02-28T19:34:22;98840.50;;;3.39;100.00
17505;BME280;8870;50.950;11.762;2024-02-28T19:39:53;98833.06;;;3.45;100.00
17505;BME280;8870;50.950;11.762;2024-02-28T19:45:24;98839.03;;;3.48;100.00
17505;BME280;8870;50.950;11.762;2024-02-28T19:50:56;98840.94;;;3.46;100.00
17505;BME280;8870;50.950;11.762;2024-02-28T19:56:14;98843.72;;;3.45;100.00
17505;BME280;8870;50.950;11.762;2024-02-28T20:01:51;98833.38;;;3.40;100.00
17505;BME280;8870;50.950;11.762;2024-02-28T20:07:10;98837.41;;;3.33;100.00
17505;BME280;8870;50.950;11.762;2024-02-28T20:12:42;98828.34;;;3.22;100.00
17505;BME280;8870;50.950;11.762;2024-02-28T20:18:03;98837.81;;;3.14;100.00
17505;BME280;8870;50.950;11.762;2024-02-28T20:23:35;98843.34;;;3.11;100.00
17505;BME280;8870;50.950;11.762;2024-02-28T20:28:54;98825.56;;;3.11;100.00
17505;BME280;8870;50.950;11.762;2024-02-28T20:34:27;98829.72;;;3.15;100.00
17505;BME280;8870;50.950;11.762;2024-02-28T20:39:54;98835.13;;;3.14;100.00
17505;BME280;8870;50.950;11.762;2024-02-28T20:45:26;98830.56;;;3.03;100.00
17505;BME280;8870;50.950;11.762;2024-02-28T20:50:47;98830.88;;;2.98;100.00
17505;BME280;8870;50.950;11.762;2024-02-28T20:56:24;98828.53;;;2.93;100.00
17505;BME280;8870;50.950;11.762;2024-02-28T21:01:44;98828.41;;;2.95;100.00
17505;BME280;8870;50.950;11.762;2024-02-28T21:07:17;98825.94;;;2.92;100.00
17505;BME280;8870;50.950;11.762;2024-02-28T21:12:53;98815.72;;;2.86;100.00
17505;BME280;8870;50.950;11.762;2024-02-28T21:18:24;98812.16;;;2.72;100.00
17505;BME280;8870;50.950;11.762;2024-02-28T21:23:46;98820.75;;;2.63;100.00
17505;BME280;8870;50.950;11.762;2024-02-28T21:29:17;98802.63;;;2.55;100.00
17505;BME280;8870;50.950;11.762;2024-02-28T21:34:35;98796.44;;;2.55;100.00
17505;BME280;8870;50.950;11.762;2024-02-28T21:40:09;98804.88;;;2.61;100.00
17505;BME280;8870;50.950;11.762;2024-02-28T21:45:28;98799.25;;;2.66;100.00
17505;BME280;8870;50.950;11.762;2024-02-28T21:50:59;98809.69;;;2.69;100.00
17505;BME280;8870;50.950;11.762;2024-02-28T21:56:20;98807.38;;;2.77;100.00
17505;BME280;8870;50.950;11.762;2024-02-28T22:01:52;98805.47;;;2.80;100.00
17505;BME280;8870;50.950;11.762;2024-02-28T22:07:10;98807.78;;;2.71;100.00
17505;BME280;8870;50.950;11.762;2024-02-28T22:12:43;98798.41;;;2.66;100.00
17505;BME280;8870;50.950;11.762;2024-02-28T22:18:02;98793.41;;;2.61;100.00
17505;BME280;8870;50.950;11.762;2024-02-28T22:23:36;98786.69;;;2.55;100.00
17505;BME280;8870;50.950;11.762;2024-02-28T22:29:02;98794.75;;;2.54;100.00
17505;BME280;8870;50.950;11.762;2024-02-28T22:34:34;98797.72;;;2.49;100.00
17505;BME280;8870;50.950;11.762;2024-02-28T22:39:59;98781.53;;;2.39;100.00
17505;BME280;8870;50.950;11.762;2024-02-28T22:45:34;98784.22;;;2.25;100.00
17505;BME280;8870;50.950;11.762;2024-02-28T22:50:55;98776.84;;;2.15;100.00
17505;BME280;8870;50.950;11.762;2024-02-28T22:56:26;98783.97;;;2.15;100.00
17505;BME280;8870;50.950;11.762;2024-02-28T23:01:47;98775.97;;;2.15;100.00
17505;BME280;8870;50.950;11.762;2024-02-28T23:07:19;98778.56;;;2.17;100.00
17505;BME280;8870;50.950;11.762;2024-02-28T23:12:38;98784.44;;;2.07;100.00
17505;BME280;8870;50.950;11.762;2024-02-28T23:18:11;98774.03;;;2.04;100.00
17505;BME280;8870;50.950;11.762;2024-02-28T23:23:30;98776.47;;;2.07;100.00
17505;BME280;8870;50.950;11.762;2024-02-28T23:29:01;98767.09;;;2.02;100.00
17505;BME280;8870;50.950;11.762;2024-02-28T23:34:21;98757.72;;;1.96;100.00
17505;BME280;8870;50.950;11.762;2024-02-28T23:39:53;98756.28;;;1.90;100.00
17505;BME280;8870;50.950;11.762;2024-02-28T23:45:24;98761.16;;;1.83;100.00
17505;BME280;8870;50.950;11.762;2024-02-28T23:50:57;98767.50;;;1.81;100.00
17505;BME280;8870;50.950;11.762;2024-02-28T23:56:16;98758.72;;;1.80;100.00
